EZY91HN LSGG-EGKK
Flight info
| Callsign | EZY91HN |
|---|---|
| Flight time | 1h 9m |
| Altitude | 36000 |
| Route | DIPIR T37 LUKID T37 IBABA DCT DJL T37 TRO DCT KUNAV |
| Aircraft | A320/M-SDE3FGHIRWY/LB1 |
Departure
| Time | 2026-05-04 17:41 |
|---|---|
| Airport | Geneva International Airport (LSGG) |
Arrival
| Time | 2026-05-04 18:51 |
|---|---|
| Airport | London Gatwick Airport (EGKK) |
| Time | Latitude | Longitude | Altitude | Speed | Heading |
|---|---|---|---|---|---|
| 2026-05-04 17:25 | 46.23221 | 6.10501 | 1407 ft | 0 kts | 224° |
| 2026-05-04 17:36 | 46.23218 | 6.10498 | 1407 ft | 4 kts | 224° |
| 2026-05-04 17:36 | 46.23201 | 6.10455 | 1411 ft | 3 kts | 258° |
| 2026-05-04 17:36 | 46.23216 | 6.10418 | 1411 ft | 7 kts | 325° |
| 2026-05-04 17:36 | 46.23270 | 6.10453 | 1414 ft | 17 kts | 45° |
| 2026-05-04 17:37 | 46.23387 | 6.10621 | 1408 ft | 19 kts | 43° |
| 2026-05-04 17:37 | 46.23492 | 6.10767 | 1402 ft | 27 kts | 46° |
| 2026-05-04 17:37 | 46.23657 | 6.11009 | 1400 ft | 37 kts | 46° |
| 2026-05-04 17:37 | 46.23831 | 6.11264 | 1403 ft | 36 kts | 45° |
| 2026-05-04 17:38 | 46.24006 | 6.11522 | 1387 ft | 36 kts | 46° |
| 2026-05-04 17:38 | 46.24177 | 6.11773 | 1382 ft | 35 kts | 46° |
| 2026-05-04 17:38 | 46.24355 | 6.12034 | 1383 ft | 40 kts | 45° |
| 2026-05-04 17:38 | 46.24489 | 6.12241 | 1380 ft | 24 kts | 47° |
| 2026-05-04 17:39 | 46.24719 | 6.12573 | 1375 ft | 24 kts | 44° |
| 2026-05-04 17:39 | 46.24818 | 6.12677 | 1373 ft | 14 kts | 19° |
| 2026-05-04 17:39 | 46.24904 | 6.12716 | 1372 ft | 16 kts | 17° |
| 2026-05-04 17:40 | 46.25006 | 6.12695 | 1373 ft | 14 kts | 318° |
| 2026-05-04 17:40 | 46.24980 | 6.12604 | 1373 ft | 13 kts | 221° |
| 2026-05-04 17:40 | 46.24792 | 6.12335 | 1375 ft | 71 kts | 225° |
| 2026-05-04 17:40 | 46.24303 | 6.11623 | 1387 ft | 128 kts | 225° |
| 2026-05-04 17:41 | 46.23567 | 6.10548 | 1462 ft | 165 kts | 225° |
| 2026-05-04 17:41 | 46.22799 | 6.09431 | 2117 ft | 161 kts | 226° |
| 2026-05-04 17:41 | 46.22015 | 6.08266 | 2787 ft | 166 kts | 225° |
| 2026-05-04 17:41 | 46.21157 | 6.07002 | 3140 ft | 188 kts | 224° |
| 2026-05-04 17:42 | 46.20179 | 6.05571 | 3441 ft | 212 kts | 224° |
| 2026-05-04 17:42 | 46.19075 | 6.03965 | 3817 ft | 236 kts | 224° |
| 2026-05-04 17:42 | 46.17861 | 6.02201 | 4346 ft | 255 kts | 223° |
| 2026-05-04 17:42 | 46.16613 | 6.00388 | 5253 ft | 257 kts | 223° |
| 2026-05-04 17:43 | 46.15368 | 5.98558 | 6252 ft | 258 kts | 225° |
| 2026-05-04 17:43 | 46.14119 | 5.96672 | 7170 ft | 260 kts | 227° |
| 2026-05-04 17:43 | 46.13201 | 5.94401 | 7988 ft | 268 kts | 252° |
| 2026-05-04 17:43 | 46.13056 | 5.91696 | 8820 ft | 277 kts | 276° |
| 2026-05-04 17:44 | 46.13737 | 5.89072 | 9663 ft | 286 kts | 302° |
| 2026-05-04 17:44 | 46.15169 | 5.87030 | 10435 ft | 298 kts | 324° |
| 2026-05-04 17:44 | 46.17171 | 5.85879 | 10729 ft | 326 kts | 347° |
| 2026-05-04 17:44 | 46.19443 | 5.85336 | 11303 ft | 337 kts | 349° |
| 2026-05-04 17:45 | 46.21776 | 5.84811 | 12059 ft | 341 kts | 349° |
| 2026-05-04 17:45 | 46.24138 | 5.84278 | 12763 ft | 345 kts | 348° |
| 2026-05-04 17:45 | 46.26525 | 5.83726 | 13529 ft | 349 kts | 348° |
| 2026-05-04 17:45 | 46.28927 | 5.83160 | 14221 ft | 353 kts | 348° |
| 2026-05-04 17:46 | 46.31367 | 5.82576 | 14855 ft | 357 kts | 347° |
| 2026-05-04 17:46 | 46.33836 | 5.81979 | 15460 ft | 362 kts | 347° |
| 2026-05-04 17:46 | 46.36340 | 5.81376 | 16054 ft | 366 kts | 347° |
| 2026-05-04 17:46 | 46.38854 | 5.80768 | 16656 ft | 370 kts | 346° |
| 2026-05-04 17:47 | 46.41346 | 5.79788 | 17233 ft | 371 kts | 335° |
| 2026-05-04 17:47 | 46.43668 | 5.78176 | 17796 ft | 372 kts | 326° |
| 2026-05-04 17:47 | 46.45959 | 5.76317 | 18401 ft | 376 kts | 326° |
| 2026-05-04 17:47 | 46.48261 | 5.74455 | 18897 ft | 380 kts | 326° |
| 2026-05-04 17:48 | 46.50564 | 5.72593 | 19393 ft | 384 kts | 326° |
| 2026-05-04 17:48 | 46.52908 | 5.70695 | 19890 ft | 389 kts | 326° |
| 2026-05-04 17:48 | 46.54470 | 5.69429 | 20213 ft | 391 kts | 326° |
| 2026-05-04 17:48 | 46.57679 | 5.66830 | 20896 ft | 397 kts | 326° |
| 2026-05-04 17:49 | 46.60117 | 5.64849 | 21403 ft | 401 kts | 326° |
| 2026-05-04 17:49 | 46.62534 | 5.62879 | 21891 ft | 405 kts | 326° |
| 2026-05-04 17:49 | 46.65004 | 5.60865 | 22396 ft | 409 kts | 326° |
| 2026-05-04 17:49 | 46.67507 | 5.58826 | 22904 ft | 414 kts | 326° |
| 2026-05-04 17:50 | 46.70036 | 5.56753 | 23397 ft | 418 kts | 326° |
| 2026-05-04 17:50 | 46.72552 | 5.54673 | 23835 ft | 422 kts | 326° |
| 2026-05-04 17:50 | 46.75117 | 5.52546 | 24251 ft | 425 kts | 326° |
| 2026-05-04 17:50 | 46.77715 | 5.50391 | 24679 ft | 428 kts | 326° |
| 2026-05-04 17:51 | 46.80320 | 5.48230 | 25098 ft | 430 kts | 326° |
| 2026-05-04 17:51 | 46.82910 | 5.46081 | 25493 ft | 433 kts | 326° |
| 2026-05-04 17:51 | 46.85543 | 5.43894 | 25900 ft | 436 kts | 326° |
| 2026-05-04 17:51 | 46.88161 | 5.41718 | 26293 ft | 438 kts | 326° |
| 2026-05-04 17:52 | 46.90818 | 5.39524 | 26669 ft | 441 kts | 326° |
| 2026-05-04 17:52 | 46.93520 | 5.37317 | 27042 ft | 443 kts | 327° |
| 2026-05-04 17:52 | 46.96239 | 5.35106 | 27411 ft | 446 kts | 327° |
| 2026-05-04 17:52 | 46.98937 | 5.32910 | 27775 ft | 448 kts | 327° |
| 2026-05-04 17:53 | 47.01675 | 5.30673 | 28135 ft | 451 kts | 327° |
| 2026-05-04 17:53 | 47.04397 | 5.28441 | 28506 ft | 453 kts | 327° |
| 2026-05-04 17:53 | 47.07152 | 5.26182 | 28848 ft | 455 kts | 327° |
| 2026-05-04 17:53 | 47.09935 | 5.23898 | 29204 ft | 458 kts | 327° |
| 2026-05-04 17:54 | 47.12719 | 5.21609 | 29525 ft | 460 kts | 327° |
| 2026-05-04 17:54 | 47.15515 | 5.19306 | 29857 ft | 463 kts | 327° |
| 2026-05-04 17:54 | 47.18346 | 5.16966 | 30157 ft | 465 kts | 327° |
| 2026-05-04 17:54 | 47.21142 | 5.14652 | 30423 ft | 467 kts | 327° |
| 2026-05-04 17:55 | 47.23974 | 5.12306 | 30694 ft | 468 kts | 327° |
| 2026-05-04 17:55 | 47.26792 | 5.09908 | 30969 ft | 467 kts | 322° |
| 2026-05-04 17:55 | 47.29388 | 5.07104 | 31236 ft | 465 kts | 317° |
| 2026-05-04 17:55 | 47.31959 | 5.04154 | 31589 ft | 464 kts | 317° |
| 2026-05-04 17:56 | 47.34495 | 5.01250 | 31990 ft | 462 kts | 318° |
| 2026-05-04 17:56 | 47.37023 | 4.98356 | 32377 ft | 460 kts | 318° |
| 2026-05-04 17:56 | 47.39555 | 4.95456 | 32760 ft | 459 kts | 318° |
| 2026-05-04 17:56 | 47.42082 | 4.92558 | 33142 ft | 457 kts | 318° |
| 2026-05-04 17:57 | 47.44585 | 4.89680 | 33529 ft | 456 kts | 318° |
| 2026-05-04 17:57 | 47.47053 | 4.86842 | 33903 ft | 454 kts | 318° |
| 2026-05-04 17:57 | 47.49539 | 4.83978 | 34225 ft | 453 kts | 317° |
| 2026-05-04 17:57 | 47.52026 | 4.81110 | 34524 ft | 452 kts | 317° |
| 2026-05-04 17:58 | 47.54500 | 4.78254 | 34807 ft | 451 kts | 317° |
| 2026-05-04 17:58 | 47.56974 | 4.75391 | 35080 ft | 450 kts | 317° |
| 2026-05-04 17:58 | 47.59445 | 4.72524 | 35328 ft | 449 kts | 317° |
| 2026-05-04 17:58 | 47.61904 | 4.69670 | 35587 ft | 449 kts | 317° |
| 2026-05-04 17:59 | 47.64357 | 4.66822 | 35838 ft | 448 kts | 317° |
| 2026-05-04 17:59 | 47.66816 | 4.63963 | 35960 ft | 447 kts | 317° |
| 2026-05-04 18:00 | 47.74245 | 4.55282 | 35975 ft | 462 kts | 317° |
| 2026-05-04 18:00 | 47.79340 | 4.49331 | 35973 ft | 469 kts | 317° |
| 2026-05-04 18:01 | 47.84480 | 4.43304 | 35971 ft | 473 kts | 317° |
| 2026-05-04 18:01 | 47.89667 | 4.37213 | 35966 ft | 474 kts | 317° |
| 2026-05-04 18:02 | 47.97430 | 4.28063 | 35967 ft | 474 kts | 317° |
| 2026-05-04 18:02 | 48.02592 | 4.21950 | 35962 ft | 474 kts | 317° |
| 2026-05-04 18:03 | 48.07765 | 4.15809 | 35966 ft | 474 kts | 317° |
| 2026-05-04 18:03 | 48.12905 | 4.09684 | 35962 ft | 475 kts | 317° |
| 2026-05-04 18:04 | 48.18076 | 4.03522 | 35952 ft | 475 kts | 317° |
| 2026-05-04 18:05 | 48.25848 | 3.94238 | 35952 ft | 475 kts | 317° |
| 2026-05-04 18:05 | 48.30152 | 3.89067 | 35959 ft | 476 kts | 317° |
| 2026-05-04 18:06 | 48.38741 | 3.78707 | 35965 ft | 476 kts | 317° |
| 2026-05-04 18:06 | 48.43067 | 3.73482 | 35964 ft | 476 kts | 317° |
| 2026-05-04 18:07 | 48.48238 | 3.67223 | 35971 ft | 476 kts | 317° |
| 2026-05-04 18:07 | 48.53373 | 3.60988 | 35974 ft | 476 kts | 317° |
| 2026-05-04 18:08 | 48.58522 | 3.54715 | 35972 ft | 476 kts | 317° |
| 2026-05-04 18:08 | 48.63675 | 3.48426 | 35970 ft | 476 kts | 317° |
| 2026-05-04 18:09 | 48.73972 | 3.35793 | 35975 ft | 475 kts | 317° |
| 2026-05-04 18:10 | 48.79071 | 3.29510 | 35979 ft | 475 kts | 317° |
| 2026-05-04 18:10 | 48.84192 | 3.23178 | 35971 ft | 475 kts | 317° |
| 2026-05-04 18:11 | 48.89326 | 3.16820 | 35978 ft | 475 kts | 317° |
| 2026-05-04 18:11 | 48.94450 | 3.10461 | 35974 ft | 475 kts | 317° |
| 2026-05-04 18:12 | 48.99539 | 3.04127 | 35962 ft | 475 kts | 317° |
| 2026-05-04 18:12 | 49.04644 | 2.97756 | 35965 ft | 475 kts | 317° |
| 2026-05-04 18:13 | 49.09774 | 2.91356 | 35964 ft | 475 kts | 317° |
| 2026-05-04 18:14 | 49.17394 | 2.81788 | 35964 ft | 474 kts | 317° |
| 2026-05-04 18:14 | 49.22495 | 2.75344 | 35972 ft | 474 kts | 317° |
| 2026-05-04 18:15 | 49.32632 | 2.62499 | 35969 ft | 474 kts | 317° |
| 2026-05-04 18:16 | 49.37716 | 2.56050 | 35976 ft | 474 kts | 317° |
| 2026-05-04 18:16 | 49.42808 | 2.49582 | 35983 ft | 474 kts | 317° |
| 2026-05-04 18:17 | 49.50403 | 2.39868 | 35985 ft | 474 kts | 317° |
| 2026-05-04 18:18 | 49.57995 | 2.30102 | 35987 ft | 473 kts | 317° |
| 2026-05-04 18:18 | 49.63032 | 2.23617 | 35986 ft | 473 kts | 317° |
| 2026-05-04 18:19 | 49.70627 | 2.13792 | 35982 ft | 473 kts | 317° |
| 2026-05-04 18:19 | 49.75652 | 2.07269 | 35979 ft | 473 kts | 317° |
| 2026-05-04 18:20 | 49.80663 | 2.00737 | 35973 ft | 472 kts | 317° |
| 2026-05-04 18:20 | 49.83155 | 1.97488 | 35722 ft | 468 kts | 317° |
| 2026-05-04 18:20 | 49.85658 | 1.94221 | 34967 ft | 466 kts | 317° |
| 2026-05-04 18:21 | 49.88102 | 1.91027 | 34450 ft | 460 kts | 317° |
| 2026-05-04 18:21 | 49.90545 | 1.87835 | 33935 ft | 455 kts | 317° |
| 2026-05-04 18:21 | 49.92941 | 1.84702 | 33262 ft | 452 kts | 317° |
| 2026-05-04 18:21 | 49.95358 | 1.81539 | 32714 ft | 446 kts | 317° |
| 2026-05-04 18:22 | 49.97676 | 1.78497 | 32190 ft | 441 kts | 317° |
| 2026-05-04 18:22 | 50.00018 | 1.75414 | 31664 ft | 437 kts | 317° |
| 2026-05-04 18:22 | 50.02332 | 1.72359 | 31149 ft | 432 kts | 317° |
| 2026-05-04 18:22 | 50.04599 | 1.69364 | 30644 ft | 429 kts | 318° |
| 2026-05-04 18:23 | 50.06863 | 1.66373 | 30160 ft | 425 kts | 318° |
| 2026-05-04 18:23 | 50.09108 | 1.63402 | 29630 ft | 421 kts | 318° |
| 2026-05-04 18:23 | 50.11332 | 1.60448 | 29169 ft | 415 kts | 318° |
| 2026-05-04 18:23 | 50.13498 | 1.57570 | 28713 ft | 410 kts | 318° |
| 2026-05-04 18:24 | 50.15653 | 1.54702 | 28269 ft | 405 kts | 318° |
| 2026-05-04 18:24 | 50.17794 | 1.51855 | 27825 ft | 401 kts | 318° |
| 2026-05-04 18:24 | 50.19913 | 1.49037 | 27375 ft | 397 kts | 318° |
| 2026-05-04 18:24 | 50.21998 | 1.46257 | 26932 ft | 393 kts | 318° |
| 2026-05-04 18:25 | 50.24065 | 1.43496 | 26483 ft | 391 kts | 318° |
| 2026-05-04 18:25 | 50.26125 | 1.40748 | 26029 ft | 388 kts | 318° |
| 2026-05-04 18:25 | 50.28158 | 1.38035 | 25570 ft | 386 kts | 318° |
| 2026-05-04 18:25 | 50.30198 | 1.35306 | 25100 ft | 384 kts | 317° |
| 2026-05-04 18:26 | 50.32224 | 1.32587 | 24605 ft | 383 kts | 317° |
| 2026-05-04 18:26 | 50.34243 | 1.29871 | 24127 ft | 382 kts | 317° |
| 2026-05-04 18:26 | 50.36269 | 1.27144 | 23633 ft | 381 kts | 317° |
| 2026-05-04 18:26 | 50.38257 | 1.24467 | 23109 ft | 380 kts | 317° |
| 2026-05-04 18:27 | 50.40250 | 1.21775 | 22629 ft | 377 kts | 318° |
| 2026-05-04 18:27 | 50.42240 | 1.19087 | 22159 ft | 374 kts | 318° |
| 2026-05-04 18:27 | 50.44201 | 1.16436 | 21688 ft | 372 kts | 318° |
| 2026-05-04 18:27 | 50.46145 | 1.13806 | 21241 ft | 370 kts | 318° |
| 2026-05-04 18:28 | 50.48091 | 1.11169 | 20792 ft | 368 kts | 318° |
| 2026-05-04 18:28 | 50.50023 | 1.08551 | 20340 ft | 365 kts | 318° |
| 2026-05-04 18:28 | 50.51902 | 1.05879 | 19903 ft | 363 kts | 313° |
| 2026-05-04 18:28 | 50.53623 | 1.02981 | 19483 ft | 361 kts | 313° |
| 2026-05-04 18:29 | 50.55336 | 1.00095 | 19044 ft | 359 kts | 313° |
| 2026-05-04 18:29 | 50.57039 | 0.97222 | 18612 ft | 358 kts | 313° |
| 2026-05-04 18:29 | 50.58722 | 0.94382 | 18175 ft | 357 kts | 313° |
| 2026-05-04 18:29 | 50.60408 | 0.91541 | 17725 ft | 354 kts | 313° |
| 2026-05-04 18:30 | 50.63759 | 0.85891 | 16900 ft | 349 kts | 313° |
| 2026-05-04 18:30 | 50.65412 | 0.83094 | 16495 ft | 346 kts | 313° |
| 2026-05-04 18:30 | 50.67035 | 0.80338 | 16094 ft | 344 kts | 313° |
| 2026-05-04 18:31 | 50.68620 | 0.77523 | 15734 ft | 341 kts | 310° |
| 2026-05-04 18:31 | 50.70117 | 0.74656 | 15438 ft | 336 kts | 309° |
| 2026-05-04 18:31 | 50.71547 | 0.71809 | 15128 ft | 332 kts | 308° |
| 2026-05-04 18:31 | 50.72965 | 0.68948 | 14811 ft | 328 kts | 308° |
| 2026-05-04 18:32 | 50.74374 | 0.66116 | 14503 ft | 324 kts | 308° |
| 2026-05-04 18:32 | 50.75754 | 0.63369 | 14199 ft | 321 kts | 309° |
| 2026-05-04 18:32 | 50.77138 | 0.60633 | 13900 ft | 318 kts | 309° |
| 2026-05-04 18:32 | 50.78519 | 0.57909 | 13573 ft | 315 kts | 309° |
| 2026-05-04 18:33 | 50.79890 | 0.55205 | 13267 ft | 311 kts | 309° |
| 2026-05-04 18:33 | 50.81226 | 0.52575 | 12978 ft | 308 kts | 309° |
| 2026-05-04 18:33 | 50.82559 | 0.49952 | 12683 ft | 306 kts | 309° |
| 2026-05-04 18:33 | 50.83895 | 0.47320 | 12394 ft | 303 kts | 309° |
| 2026-05-04 18:34 | 50.85207 | 0.44729 | 12109 ft | 302 kts | 309° |
| 2026-05-04 18:34 | 50.86524 | 0.42124 | 11819 ft | 300 kts | 309° |
| 2026-05-04 18:34 | 50.87814 | 0.39576 | 11541 ft | 299 kts | 308° |
| 2026-05-04 18:34 | 50.89113 | 0.37004 | 11274 ft | 297 kts | 308° |
| 2026-05-04 18:35 | 50.90079 | 0.35087 | 11043 ft | 296 kts | 308° |
| 2026-05-04 18:35 | 50.91317 | 0.32630 | 10772 ft | 295 kts | 309° |
| 2026-05-04 18:35 | 50.92758 | 0.30336 | 10505 ft | 294 kts | 320° |
| 2026-05-04 18:35 | 50.94321 | 0.28324 | 10258 ft | 292 kts | 321° |
| 2026-05-04 18:36 | 50.94857 | 0.27648 | 10187 ft | 292 kts | 320° |
| 2026-05-04 18:36 | 50.96437 | 0.25636 | 9938 ft | 291 kts | 321° |
| 2026-05-04 18:36 | 50.97945 | 0.23753 | 9688 ft | 290 kts | 321° |
| 2026-05-04 18:37 | 50.99485 | 0.21738 | 9424 ft | 288 kts | 313° |
| 2026-05-04 18:37 | 51.00510 | 0.19067 | 9168 ft | 284 kts | 286° |
| 2026-05-04 18:37 | 51.00664 | 0.15978 | 8901 ft | 282 kts | 259° |
| 2026-05-04 18:37 | 51.00163 | 0.12950 | 8640 ft | 282 kts | 252° |
| 2026-05-04 18:38 | 50.99563 | 0.09994 | 8397 ft | 281 kts | 251° |
| 2026-05-04 18:38 | 50.98950 | 0.07047 | 8158 ft | 281 kts | 251° |
| 2026-05-04 18:38 | 50.98348 | 0.04168 | 7939 ft | 280 kts | 251° |
| 2026-05-04 18:38 | 50.97733 | 0.01243 | 7714 ft | 279 kts | 251° |
| 2026-05-04 18:39 | 50.97115 | -0.01688 | 7487 ft | 278 kts | 251° |
| 2026-05-04 18:39 | 50.96507 | -0.04561 | 7260 ft | 277 kts | 251° |
| 2026-05-04 18:39 | 50.95892 | -0.07454 | 7047 ft | 277 kts | 251° |
| 2026-05-04 18:39 | 50.95280 | -0.10358 | 6819 ft | 276 kts | 253° |
| 2026-05-04 18:40 | 50.95113 | -0.13352 | 6587 ft | 274 kts | 277° |
| 2026-05-04 18:40 | 50.95418 | -0.16331 | 6378 ft | 274 kts | 281° |
| 2026-05-04 18:40 | 50.95773 | -0.19242 | 6122 ft | 261 kts | 281° |
| 2026-05-04 18:40 | 50.96104 | -0.21942 | 6001 ft | 243 kts | 281° |
| 2026-05-04 18:41 | 50.96425 | -0.24569 | 6008 ft | 242 kts | 281° |
| 2026-05-04 18:41 | 50.96734 | -0.27107 | 6007 ft | 226 kts | 281° |
| 2026-05-04 18:41 | 50.97021 | -0.29465 | 6007 ft | 209 kts | 281° |
| 2026-05-04 18:41 | 50.97289 | -0.31676 | 6006 ft | 200 kts | 281° |
| 2026-05-04 18:42 | 50.97551 | -0.33833 | 6009 ft | 198 kts | 281° |
| 2026-05-04 18:42 | 50.97813 | -0.36001 | 5784 ft | 199 kts | 281° |
| 2026-05-04 18:42 | 50.98056 | -0.38047 | 5560 ft | 198 kts | 281° |
| 2026-05-04 18:42 | 50.98309 | -0.40204 | 5306 ft | 198 kts | 281° |
| 2026-05-04 18:43 | 50.98554 | -0.42351 | 5051 ft | 197 kts | 281° |
| 2026-05-04 18:43 | 50.98917 | -0.44397 | 4783 ft | 194 kts | 304° |
| 2026-05-04 18:43 | 50.99872 | -0.45866 | 4547 ft | 191 kts | 327° |
| 2026-05-04 18:43 | 51.00993 | -0.46991 | 4293 ft | 190 kts | 330° |
| 2026-05-04 18:44 | 51.02136 | -0.48064 | 4033 ft | 190 kts | 331° |
| 2026-05-04 18:44 | 51.02523 | -0.48425 | 3955 ft | 189 kts | 331° |
| 2026-05-04 18:44 | 51.04406 | -0.50186 | 3747 ft | 189 kts | 331° |
| 2026-05-04 18:44 | 51.05517 | -0.51230 | 3587 ft | 188 kts | 331° |
| 2026-05-04 18:45 | 51.06687 | -0.52186 | 3425 ft | 185 kts | 345° |
| 2026-05-04 18:45 | 51.07920 | -0.52271 | 3258 ft | 180 kts | 20° |
| 2026-05-04 18:45 | 51.08961 | -0.51179 | 3128 ft | 180 kts | 43° |
| 2026-05-04 18:45 | 51.09857 | -0.49775 | 3046 ft | 180 kts | 46° |
| 2026-05-04 18:46 | 51.10615 | -0.48312 | 2993 ft | 167 kts | 62° |
| 2026-05-04 18:46 | 51.10968 | -0.46584 | 3017 ft | 163 kts | 76° |
| 2026-05-04 18:46 | 51.11215 | -0.44832 | 3006 ft | 162 kts | 76° |
| 2026-05-04 18:46 | 51.11459 | -0.43100 | 2973 ft | 162 kts | 76° |
| 2026-05-04 18:47 | 51.11704 | -0.41357 | 2822 ft | 161 kts | 76° |
| 2026-05-04 18:47 | 51.11948 | -0.39622 | 2626 ft | 160 kts | 76° |
| 2026-05-04 18:47 | 51.12188 | -0.37902 | 2423 ft | 158 kts | 76° |
| 2026-05-04 18:47 | 51.12428 | -0.36191 | 2204 ft | 158 kts | 76° |
| 2026-05-04 18:48 | 51.12666 | -0.34484 | 1992 ft | 157 kts | 76° |
| 2026-05-04 18:48 | 51.12904 | -0.32780 | 1784 ft | 158 kts | 76° |
| 2026-05-04 18:48 | 51.13139 | -0.31100 | 1570 ft | 157 kts | 76° |
| 2026-05-04 18:48 | 51.13372 | -0.29424 | 1354 ft | 150 kts | 76° |
| 2026-05-04 18:49 | 51.13591 | -0.27847 | 1153 ft | 142 kts | 76° |
| 2026-05-04 18:49 | 51.13802 | -0.26335 | 962 ft | 139 kts | 76° |
| 2026-05-04 18:49 | 51.14009 | -0.24841 | 735 ft | 139 kts | 76° |
| 2026-05-04 18:49 | 51.14219 | -0.23336 | 571 ft | 139 kts | 76° |
| 2026-05-04 18:50 | 51.14357 | -0.22345 | 403 ft | 138 kts | 76° |
| 2026-05-04 18:50 | 51.14564 | -0.20858 | 258 ft | 137 kts | 76° |
| 2026-05-04 18:50 | 51.14756 | -0.19468 | 217 ft | 110 kts | 77° |
| 2026-05-04 18:50 | 51.14883 | -0.18541 | 206 ft | 61 kts | 78° |
| 2026-05-04 18:51 | 51.14997 | -0.17921 | 212 ft | 33 kts | 56° |
| 2026-05-04 18:51 | 51.15042 | -0.17825 | 212 ft | 6 kts | 52° |
| 2026-05-04 18:51 | 51.15072 | -0.17768 | 213 ft | 8 kts | 39° |
| 2026-05-04 18:51 | 51.15137 | -0.17763 | 205 ft | 11 kts | 352° |
| 2026-05-04 18:52 | 51.15184 | -0.17773 | 215 ft | 0 kts | 352° |
| 2026-05-04 18:53 | 51.15236 | -0.17795 | 214 ft | 13 kts | 324° |
| 2026-05-04 18:54 | 51.15236 | -0.17934 | 211 ft | 18 kts | 257° |
| 2026-05-04 18:54 | 51.15203 | -0.18169 | 205 ft | 14 kts | 259° |
| 2026-05-04 18:54 | 51.15268 | -0.18239 | 205 ft | 16 kts | 348° |
| 2026-05-04 18:54 | 51.15404 | -0.18284 | 206 ft | 22 kts | 348° |
| 2026-05-04 18:55 | 51.15557 | -0.18334 | 205 ft | 23 kts | 349° |
| 2026-05-04 18:55 | 51.15670 | -0.18163 | 206 ft | 13 kts | 78° |
| 2026-05-04 18:55 | 51.15691 | -0.18013 | 209 ft | 15 kts | 77° |
| 2026-05-04 18:56 | 51.15706 | -0.17897 | 211 ft | 2 kts | 86° |
| 2026-05-04 18:56 | 51.15700 | -0.17881 | 209 ft | 2 kts | 133° |
| 2026-05-04 18:56 | 51.15683 | -0.17870 | 210 ft | 4 kts | 163° |
| 2026-05-04 18:56 | 51.15653 | -0.17859 | 215 ft | 4 kts | 166° |
| 2026-05-04 18:57 | 51.15639 | -0.17854 | 208 ft | 0 kts | 167° |